Time;durP1;ratioP1;P1;durP2;ratioP2;P2;SDS_P1;SDS_P2;PMS_P1;PMS_P2;Temp;Humidity;BMP_temperature;BMP_pressure;BME280_temperature;BME280_humidity;BME280_pressure;Samples;Min_cycle;Max_cycle;Signal;HPM_P1;HPM_P2
2024/02/24 00:00:33;;;;;;;2.40;0.90;;;6.30;99.90;;;;;;5021799;28;20028;-86
2024/02/24 00:02:58;;;;;;;4.57;1.10;;;6.20;99.90;;;;;;5023185;28;20060;-87
2024/02/24 00:05:27;;;;;;;4.67;1.17;;;6.20;99.90;;;;;;5021816;28;20493;-88
2024/02/24 00:07:54;;;;;;;4.27;0.97;;;6.20;99.90;;;;;;5023231;28;20045;-88
2024/02/24 00:10:21;;;;;;;7.43;1.20;;;6.20;99.90;;;;;;5038851;28;20036;-86
2024/02/24 00:12:46;;;;;;;4.50;1.30;;;6.10;99.90;;;;;;5024885;28;20018;-86
2024/02/24 00:15:12;;;;;;;5.07;1.10;;;6.10;99.90;;;;;;5027254;28;20132;-88
2024/02/24 00:17:38;;;;;;;5.03;1.33;;;6.10;99.90;;;;;;5025725;28;20381;-89
2024/02/24 00:20:06;;;;;;;6.40;1.13;;;6.00;99.90;;;;;;5027428;28;20032;-89
2024/02/24 00:22:31;;;;;;;2.70;1.03;;;6.00;99.90;;;;;;5026094;28;20025;-89
2024/02/24 00:24:57;;;;;;;5.20;1.30;;;6.00;99.90;;;;;;5027052;28;20081;-90
2024/02/24 00:27:23;;;;;;;4.60;1.20;;;5.90;99.90;;;;;;5026280;28;20068;-90
2024/02/24 00:29:49;;;;;;;5.93;1.30;;;5.90;99.90;;;;;;5025803;28;20048;-90
2024/02/24 00:32:16;;;;;;;3.57;1.17;;;5.90;99.90;;;;;;5044305;28;20021;-91
2024/02/24 00:34:41;;;;;;;4.13;1.37;;;5.80;99.90;;;;;;5042061;28;20018;-90
2024/02/24 00:37:07;;;;;;;4.33;1.00;;;5.80;99.90;;;;;;5027458;28;20109;-90
2024/02/24 00:39:33;;;;;;;6.83;1.30;;;5.80;99.90;;;;;;5041691;28;20024;-90
2024/02/24 00:41:58;;;;;;;4.33;1.10;;;5.80;99.90;;;;;;5043609;28;20032;-91
2024/02/24 00:44:24;;;;;;;5.00;1.60;;;5.80;99.90;;;;;;5026569;28;20029;-89
2024/02/24 00:46:50;;;;;;;5.10;1.27;;;5.70;99.90;;;;;;5026770;28;20030;-89
2024/02/24 00:49:15;;;;;;;2.43;1.20;;;5.70;99.90;;;;;;5026701;28;20117;-88
2024/02/24 00:51:41;;;;;;;4.90;1.30;;;5.70;99.90;;;;;;5025456;28;20025;-89
2024/02/24 00:54:08;;;;;;;2.73;1.17;;;5.70;99.90;;;;;;5043748;28;20029;-92
2024/02/24 00:56:35;;;;;;;3.83;1.70;;;5.70;99.90;;;;;;5026197;28;20025;-90
2024/02/24 00:59:01;;;;;;;3.33;1.30;;;5.70;99.90;;;;;;5027344;28;20026;-89
2024/02/24 01:01:27;;;;;;;5.60;1.00;;;5.60;99.90;;;;;;5024827;28;20083;-90
2024/02/24 01:03:52;;;;;;;4.07;1.43;;;5.60;99.90;;;;;;5042132;28;20063;-89
2024/02/24 01:06:18;;;;;;;3.70;0.90;;;5.60;99.90;;;;;;5026067;28;20025;-89
2024/02/24 01:08:44;;;;;;;4.13;1.30;;;5.60;99.90;;;;;;5024627;28;20106;-87
2024/02/24 01:11:10;;;;;;;5.27;1.57;;;5.60;99.90;;;;;;5026656;28;20103;-89
2024/02/24 01:13:36;;;;;;;3.13;1.20;;;5.50;99.90;;;;;;5024678;28;20060;-88
2024/02/24 01:16:01;;;;;;;4.40;1.20;;;5.50;99.90;;;;;;5026749;28;20018;-87
2024/02/24 01:18:28;;;;;;;4.10;1.10;;;5.50;99.90;;;;;;5024780;28;20025;-88
2024/02/24 01:20:54;;;;;;;5.93;1.60;;;5.50;99.90;;;;;;5025548;28;20028;-89
2024/02/24 01:23:21;;;;;;;3.17;1.30;;;5.50;99.90;;;;;;5024410;28;20025;-87
2024/02/24 01:25:47;;;;;;;3.00;1.00;;;5.40;99.90;;;;;;5024271;28;20025;-88
2024/02/24 01:28:13;;;;;;;3.50;1.50;;;5.40;99.90;;;;;;5026192;28;20028;-88
2024/02/24 01:30:38;;;;;;;3.80;1.53;;;5.40;99.90;;;;;;5023992;28;20093;-88
2024/02/24 01:33:05;;;;;;;3.07;1.27;;;5.40;99.90;;;;;;5025967;28;20052;-88
2024/02/24 01:35:31;;;;;;;4.97;1.37;;;5.40;99.90;;;;;;5040717;28;20102;-88
2024/02/24 01:37:57;;;;;;;5.93;1.60;;;5.40;99.90;;;;;;5041565;28;20085;-87
2024/02/24 01:40:22;;;;;;;5.13;1.60;;;5.40;99.90;;;;;;5024892;28;20560;-88
2024/02/24 01:42:48;;;;;;;3.50;1.30;;;5.30;99.90;;;;;;5024384;28;20021;-88
2024/02/24 01:45:14;;;;;;;3.57;1.40;;;5.30;99.90;;;;;;5042996;28;20025;-89
2024/02/24 01:47:41;;;;;;;4.40;1.30;;;5.30;99.90;;;;;;5024054;28;20501;-87
2024/02/24 01:50:10;;;;;;;3.90;1.47;;;5.30;99.90;;;;;;5025383;28;20025;-87
2024/02/24 01:52:37;;;;;;;4.63;1.47;;;5.30;99.90;;;;;;5039924;28;20045;-87
2024/02/24 01:55:04;;;;;;;4.73;1.50;;;5.40;99.90;;;;;;5025097;28;20017;-86
2024/02/24 01:57:37;;;;;;;4.37;1.40;;;5.40;99.90;;;;;;5024360;28;20033;-86
2024/02/24 02:00:04;;;;;;;3.00;1.20;;;5.40;99.90;;;;;;5023976;28;20029;-87
2024/02/24 02:02:30;;;;;;;4.60;1.30;;;5.40;99.90;;;;;;5024937;28;20053;-86
2024/02/24 02:04:55;;;;;;;5.80;2.03;;;5.40;99.90;;;;;;5041377;28;20029;-86
2024/02/24 02:07:21;;;;;;;3.40;1.37;;;5.40;99.90;;;;;;5025222;28;20041;-86
2024/02/24 02:09:57;;;;;;;3.27;1.10;;;5.40;99.90;;;;;;5023605;28;20348;-87
2024/02/24 02:12:24;;;;;;;4.20;1.30;;;5.40;99.90;;;;;;5024579;28;20022;-88
2024/02/24 02:14:50;;;;;;;2.53;1.00;;;5.40;99.90;;;;;;5024467;28;20486;-88
2024/02/24 02:17:17;;;;;;;4.17;0.90;;;5.40;99.90;;;;;;5022991;28;20061;-88
2024/02/24 02:19:42;;;;;;;3.40;1.07;;;5.50;99.90;;;;;;5024510;28;20021;-87
2024/02/24 02:22:13;;;;;;;5.67;1.20;;;5.40;99.90;;;;;;5023353;28;20060;-88
2024/02/24 02:24:39;;;;;;;3.60;1.00;;;5.40;99.90;;;;;;5041346;28;20048;-86
2024/02/24 02:27:06;;;;;;;3.77;1.20;;;5.50;99.90;;;;;;5023401;28;20029;-87
2024/02/24 02:29:33;;;;;;;4.37;1.03;;;5.50;99.90;;;;;;5024305;28;20037;-87
2024/02/24 02:31:59;;;;;;;3.67;1.20;;;5.50;99.90;;;;;;5023780;28;20481;-87
2024/02/24 02:34:25;;;;;;;3.73;0.93;;;5.50;99.90;;;;;;5022448;28;20025;-87
2024/02/24 02:36:51;;;;;;;3.40;1.00;;;5.50;99.90;;;;;;5042432;28;20045;-87
2024/02/24 02:39:17;;;;;;;4.20;1.23;;;5.50;99.90;;;;;;5022241;28;20024;-88
2024/02/24 02:41:42;;;;;;;2.57;0.90;;;5.50;99.90;;;;;;5024723;28;20017;-89
2024/02/24 02:44:08;;;;;;;3.33;0.90;;;5.50;99.90;;;;;;5022791;28;20028;-87
2024/02/24 02:46:34;;;;;;;2.43;0.90;;;5.50;99.90;;;;;;5024169;28;20026;-87
2024/02/24 02:49:00;;;;;;;2.73;0.80;;;5.50;99.90;;;;;;5023270;28;20037;-86
2024/02/24 02:51:26;;;;;;;2.17;0.80;;;5.50;99.90;;;;;;5022438;28;20067;-88
2024/02/24 02:53:51;;;;;;;2.43;0.87;;;5.50;99.90;;;;;;5041727;28;20040;-87
2024/02/24 02:56:20;;;;;;;3.00;0.90;;;5.50;99.90;;;;;;5022526;28;20017;-88
2024/02/24 02:58:46;;;;;;;3.67;0.80;;;5.50;99.90;;;;;;5024513;28;20045;-88
2024/02/24 03:01:12;;;;;;;3.13;1.10;;;5.50;99.90;;;;;;5022759;28;20022;-88
2024/02/24 03:03:38;;;;;;;2.93;1.03;;;5.60;99.90;;;;;;5023778;28;20059;-88
2024/02/24 03:06:05;;;;;;;3.30;1.03;;;5.60;99.90;;;;;;5023706;28;20049;-90
2024/02/24 03:08:34;;;;;;;1.63;0.60;;;5.60;99.90;;;;;;5023088;28;20041;-88
2024/02/24 03:11:01;;;;;;;5.23;1.00;;;5.60;99.90;;;;;;5023819;28;20044;-89
2024/02/24 03:13:27;;;;;;;2.43;0.90;;;5.60;99.90;;;;;;5022318;28;20018;-90
2024/02/24 03:15:53;;;;;;;1.90;0.70;;;5.60;99.90;;;;;;5041636;28;20049;-89
2024/02/24 03:18:19;;;;;;;3.83;1.20;;;5.70;99.90;;;;;;5021852;28;20021;-89
2024/02/24 03:20:44;;;;;;;5.47;0.90;;;5.70;99.90;;;;;;5024144;28;20112;-89
2024/02/24 03:23:10;;;;;;;2.03;1.17;;;5.70;99.90;;;;;;5023330;28;20025;-88
2024/02/24 03:25:35;;;;;;;2.10;0.80;;;5.70;99.90;;;;;;5022989;28;20037;-88
2024/02/24 03:28:03;;;;;;;3.60;0.83;;;5.70;99.90;;;;;;5023745;28;20397;-88
2024/02/24 03:30:29;;;;;;;3.43;0.93;;;5.70;99.90;;;;;;5021735;28;20029;-89
2024/02/24 03:32:55;;;;;;;2.40;0.90;;;5.60;99.90;;;;;;5022999;28;20049;-86
2024/02/24 03:35:21;;;;;;;3.33;1.10;;;5.70;99.90;;;;;;5022034;28;20457;-87
2024/02/24 03:37:49;;;;;;;2.97;0.90;;;5.70;99.90;;;;;;5023844;28;20037;-87
2024/02/24 03:40:15;;;;;;;2.47;0.70;;;5.70;99.90;;;;;;5022632;28;20094;-88
2024/02/24 03:42:40;;;;;;;3.27;0.83;;;5.70;99.90;;;;;;5023005;28;20564;-89
2024/02/24 03:45:07;;;;;;;2.50;0.90;;;5.70;99.90;;;;;;5023330;28;20028;-89
2024/02/24 03:47:32;;;;;;;2.50;0.97;;;5.80;99.90;;;;;;5021226;28;20052;-88
2024/02/24 03:49:58;;;;;;;2.97;0.90;;;5.70;99.90;;;;;;5023433;28;20026;-88
2024/02/24 03:52:24;;;;;;;2.63;0.90;;;5.70;99.90;;;;;;5021873;28;20508;-88
2024/02/24 03:54:49;;;;;;;4.60;1.00;;;5.80;99.90;;;;;;5041610;28;20017;-88
2024/02/24 03:57:15;;;;;;;3.13;1.00;;;5.80;99.90;;;;;;5022483;28;20031;-88
2024/02/24 03:59:41;;;;;;;2.53;1.10;;;5.80;99.90;;;;;;5022812;28;20049;-88
2024/02/24 04:02:07;;;;;;;3.03;0.90;;;5.80;99.90;;;;;;5022603;28;20051;-88
2024/02/24 04:04:32;;;;;;;4.43;1.27;;;5.80;99.90;;;;;;5021669;28;20032;-86
2024/02/24 04:06:58;;;;;;;2.17;0.90;;;5.90;99.90;;;;;;5023138;28;20512;-89
2024/02/24 04:09:24;;;;;;;2.30;0.90;;;5.80;99.90;;;;;;5021428;28;20026;-89
2024/02/24 04:11:52;;;;;;;2.60;1.13;;;5.90;99.90;;;;;;5023584;28;20036;-88
2024/02/24 04:14:18;;;;;;;2.57;0.90;;;5.80;99.90;;;;;;5022224;28;20020;-89
2024/02/24 04:16:43;;;;;;;4.13;1.03;;;5.80;99.90;;;;;;5023106;28;20049;-88
2024/02/24 04:19:09;;;;;;;3.27;1.07;;;5.80;99.90;;;;;;5023362;28;20041;-86
2024/02/24 04:21:35;;;;;;;3.93;1.50;;;5.80;99.90;;;;;;5022235;28;20063;-87
2024/02/24 04:24:00;;;;;;;2.90;1.10;;;5.70;99.90;;;;;;5022709;28;20018;-87
2024/02/24 04:26:26;;;;;;;4.17;1.27;;;5.70;99.90;;;;;;5021440;28;20056;-88
2024/02/24 04:28:52;;;;;;;4.73;1.30;;;5.70;99.90;;;;;;5022822;28;20048;-88
2024/02/24 04:31:17;;;;;;;2.30;1.00;;;5.70;99.90;;;;;;5026958;28;20022;-87
2024/02/24 04:33:43;;;;;;;2.53;1.07;;;5.70;99.90;;;;;;5042716;28;20024;-88
2024/02/24 04:36:09;;;;;;;3.30;1.37;;;5.70;99.90;;;;;;5041810;28;20469;-89
2024/02/24 04:38:35;;;;;;;3.13;1.20;;;5.70;99.90;;;;;;5041559;28;20048;-87
2024/02/24 04:41:01;;;;;;;3.23;1.20;;;5.70;99.90;;;;;;5041974;28;20075;-87
2024/02/24 04:43:26;;;;;;;3.43;1.10;;;5.80;99.90;;;;;;5041135;28;20039;-87
2024/02/24 04:45:52;;;;;;;2.93;1.20;;;5.70;99.90;;;;;;5042958;28;20020;-89
2024/02/24 04:48:18;;;;;;;5.83;1.40;;;5.70;99.90;;;;;;5041438;28;20407;-88
2024/02/24 04:50:43;;;;;;;2.67;1.13;;;5.80;99.90;;;;;;5060852;28;20528;-87
2024/02/24 04:53:09;;;;;;;3.87;1.30;;;5.80;99.90;;;;;;5041961;28;20021;-87
2024/02/24 04:55:35;;;;;;;4.43;1.30;;;5.80;99.90;;;;;;5039970;28;20314;-89
2024/02/24 04:58:01;;;;;;;3.80;1.20;;;5.90;99.90;;;;;;5037226;28;20392;-88
2024/02/24 05:00:26;;;;;;;2.73;1.27;;;5.90;99.90;;;;;;5044347;28;20042;-88
2024/02/24 05:02:52;;;;;;;3.93;1.40;;;5.90;99.90;;;;;;5042245;28;20056;-88
2024/02/24 05:05:18;;;;;;;3.97;1.40;;;5.90;99.90;;;;;;5041000;28;20039;-89
2024/02/24 05:07:43;;;;;;;5.07;1.63;;;5.90;99.90;;;;;;5042855;28;20022;-88
2024/02/24 05:10:09;;;;;;;5.03;1.70;;;5.90;99.90;;;;;;5041739;28;20033;-89
2024/02/24 05:12:36;;;;;;;3.57;1.60;;;5.90;99.90;;;;;;5042464;28;20100;-87
2024/02/24 05:15:02;;;;;;;5.30;1.50;;;6.00;99.90;;;;;;5042296;28;20076;-89
2024/02/24 05:17:27;;;;;;;3.63;1.70;;;6.00;99.90;;;;;;5040793;28;20013;-89
2024/02/24 05:19:53;;;;;;;3.10;1.37;;;6.00;99.90;;;;;;5042272;28;20086;-89
2024/02/24 05:22:19;;;;;;;3.33;1.30;;;6.00;99.90;;;;;;5040767;28;20032;-89
2024/02/24 05:24:45;;;;;;;3.17;1.43;;;6.00;99.90;;;;;;5044004;28;20029;-88
2024/02/24 05:27:11;;;;;;;3.40;1.17;;;6.00;99.90;;;;;;5040771;28;20423;-89
2024/02/24 05:29:37;;;;;;;3.53;1.47;;;6.00;99.90;;;;;;5041424;28;20089;-88
2024/02/24 05:32:03;;;;;;;3.20;1.30;;;6.00;99.90;;;;;;5041769;28;20466;-88
2024/02/24 05:34:29;;;;;;;5.47;1.60;;;6.00;99.90;;;;;;5041146;28;20060;-89
2024/02/24 05:36:54;;;;;;;4.13;1.57;;;6.10;99.90;;;;;;5042259;28;20584;-88
2024/02/24 05:39:20;;;;;;;3.43;1.30;;;6.10;99.90;;;;;;5040389;28;20017;-91
2024/02/24 05:41:46;;;;;;;3.13;1.67;;;6.10;99.90;;;;;;5042320;28;20032;-90
2024/02/24 05:44:12;;;;;;;3.83;1.57;;;6.10;99.90;;;;;;5040891;28;20024;-88
2024/02/24 05:46:37;;;;;;;4.27;1.47;;;6.10;99.90;;;;;;5042419;28;20045;-89
2024/02/24 05:49:03;;;;;;;4.60;1.23;;;6.10;99.90;;;;;;5042121;28;20401;-89
2024/02/24 05:51:29;;;;;;;5.57;1.93;;;6.20;99.90;;;;;;5041901;28;20037;-90
2024/02/24 05:53:55;;;;;;;7.27;1.57;;;6.10;99.90;;;;;;5048149;28;20026;-87
2024/02/24 05:56:21;;;;;;;2.93;1.40;;;6.20;99.90;;;;;;5044251;28;20032;-88
2024/02/24 05:58:46;;;;;;;3.43;1.23;;;6.20;99.90;;;;;;5047065;28;20093;-90
2024/02/24 06:01:14;;;;;;;3.23;1.30;;;6.20;99.90;;;;;;5041893;28;20028;-88
2024/02/24 06:03:39;;;;;;;4.03;1.87;;;6.20;99.90;;;;;;5042408;28;20081;-90
2024/02/24 06:06:07;;;;;;;3.87;1.70;;;6.20;99.90;;;;;;5043168;28;20018;-88
2024/02/24 06:08:33;;;;;;;4.20;1.77;;;6.20;99.90;;;;;;5041775;28;20081;-87
2024/02/24 06:10:59;;;;;;;6.07;2.17;;;6.30;99.90;;;;;;5040971;28;20033;-87
2024/02/24 06:13:25;;;;;;;3.53;1.37;;;6.30;99.90;;;;;;5040325;28;20014;-91
2024/02/24 06:15:50;;;;;;;4.63;1.77;;;6.20;99.90;;;;;;5037631;28;20026;-89
2024/02/24 06:18:16;;;;;;;4.37;1.70;;;6.20;99.90;;;;;;5040077;28;20405;-89
2024/02/24 06:20:42;;;;;;;3.50;1.73;;;6.30;99.90;;;;;;5031615;28;20018;-87
2024/02/24 06:23:08;;;;;;;3.90;1.77;;;6.30;99.90;;;;;;5038411;28;20094;-87
2024/02/24 06:25:33;;;;;;;3.33;1.60;;;6.30;99.90;;;;;;5040361;28;20041;-88
2024/02/24 06:27:59;;;;;;;4.13;1.63;;;6.30;99.90;;;;;;5041076;28;20075;-82
2024/02/24 06:30:25;;;;;;;4.17;1.67;;;6.30;99.90;;;;;;5039719;28;20037;-89
2024/02/24 06:32:50;;;;;;;3.67;1.70;;;6.30;99.90;;;;;;5040459;28;20033;-88
2024/02/24 06:35:16;;;;;;;3.70;1.57;;;6.30;99.90;;;;;;5039291;28;20017;-88
2024/02/24 06:37:42;;;;;;;3.30;1.33;;;6.40;99.90;;;;;;5041515;28;20025;-87
2024/02/24 06:40:08;;;;;;;3.90;2.00;;;6.40;99.90;;;;;;5039221;28;20059;-89
2024/02/24 06:42:34;;;;;;;4.80;1.83;;;6.40;99.90;;;;;;5040415;28;20036;-87
2024/02/24 06:44:59;;;;;;;4.33;1.40;;;6.40;99.90;;;;;;5040975;28;20022;-89
2024/02/24 06:47:25;;;;;;;4.70;1.97;;;6.40;99.90;;;;;;5039398;28;20731;-89
2024/02/24 06:49:51;;;;;;;3.30;1.70;;;6.40;99.90;;;;;;5040042;28;20029;-89
2024/02/24 06:52:17;;;;;;;7.50;1.77;;;6.40;99.90;;;;;;5039196;28;20014;-88
2024/02/24 06:54:42;;;;;;;3.67;1.67;;;6.40;99.90;;;;;;5040854;28;20106;-89
2024/02/24 06:57:08;;;;;;;5.50;2.40;;;6.40;99.90;;;;;;5038949;28;20025;-89
2024/02/24 06:59:35;;;;;;;4.33;1.90;;;6.40;99.90;;;;;;5040103;28;20052;-88
2024/02/24 07:02:00;;;;;;;5.63;2.27;;;6.40;99.90;;;;;;5039885;28;20061;-89
2024/02/24 07:04:26;;;;;;;5.47;1.50;;;6.40;99.90;;;;;;5039473;28;20088;-89
2024/02/24 07:06:52;;;;;;;6.07;2.00;;;6.40;99.90;;;;;;5039759;28;20060;-89
2024/02/24 07:09:18;;;;;;;3.33;1.60;;;6.50;99.90;;;;;;5038856;28;20046;-88
2024/02/24 07:11:43;;;;;;;3.97;1.67;;;6.40;99.90;;;;;;5040541;28;20022;-88
2024/02/24 07:14:09;;;;;;;4.70;1.80;;;6.50;99.90;;;;;;5037776;28;20013;-88
2024/02/24 07:16:35;;;;;;;3.63;1.70;;;6.50;99.90;;;;;;5040660;28;20032;-88
2024/02/24 07:19:00;;;;;;;4.53;2.00;;;6.50;99.90;;;;;;5033606;28;20018;-88
2024/02/24 07:21:26;;;;;;;3.83;1.40;;;6.50;99.90;;;;;;5029579;28;20030;-89
2024/02/24 07:23:52;;;;;;;5.53;1.53;;;6.50;99.90;;;;;;5038903;28;20465;-88
2024/02/24 07:26:19;;;;;;;3.03;1.30;;;6.50;99.90;;;;;;5038516;28;20052;-88
2024/02/24 07:28:45;;;;;;;3.50;1.70;;;6.50;99.90;;;;;;5040562;28;20013;-87
2024/02/24 07:31:11;;;;;;;4.40;1.83;;;6.60;99.90;;;;;;5037983;28;20100;-88
2024/02/24 07:33:36;;;;;;;4.50;2.00;;;6.50;99.90;;;;;;5040200;28;20025;-89
2024/02/24 07:36:02;;;;;;;5.70;1.87;;;6.60;99.90;;;;;;5039111;28;20014;-89
2024/02/24 07:38:28;;;;;;;3.37;1.90;;;6.60;99.90;;;;;;5038844;28;20036;-89
2024/02/24 07:40:53;;;;;;;4.00;1.67;;;6.60;99.90;;;;;;5039017;28;20083;-89
2024/02/24 07:43:19;;;;;;;4.23;1.73;;;6.60;99.90;;;;;;5038457;28;20044;-88
2024/02/24 07:45:45;;;;;;;3.77;1.67;;;6.70;99.90;;;;;;5040173;28;20017;-89
2024/02/24 07:48:11;;;;;;;3.80;1.63;;;6.70;99.90;;;;;;5038559;28;20513;-90
2024/02/24 07:50:36;;;;;;;4.27;2.13;;;6.70;99.90;;;;;;5040484;28;20029;-88
2024/02/24 07:53:03;;;;;;;4.53;1.97;;;6.70;99.90;;;;;;5038534;28;20021;-89
2024/02/24 07:55:30;;;;;;;3.70;1.93;;;6.80;99.90;;;;;;5039714;28;20024;-88
2024/02/24 07:57:56;;;;;;;4.77;2.17;;;6.80;99.90;;;;;;5039826;28;20032;-87
2024/02/24 08:00:22;;;;;;;4.70;1.93;;;6.80;99.90;;;;;;5038783;28;20021;-91
2024/02/24 08:02:47;;;;;;;4.90;2.00;;;6.90;99.90;;;;;;5039826;28;20042;-89
2024/02/24 08:05:13;;;;;;;5.70;2.07;;;6.90;99.90;;;;;;5038222;28;20075;-90
2024/02/24 08:07:39;;;;;;;3.37;1.57;;;6.90;99.90;;;;;;5040106;28;20022;-89
2024/02/24 08:10:05;;;;;;;5.07;2.23;;;6.90;99.90;;;;;;5038320;28;20103;-89
2024/02/24 08:12:30;;;;;;;6.27;2.17;;;7.00;99.90;;;;;;5039583;28;20029;-91
2024/02/24 08:14:56;;;;;;;5.43;2.57;;;7.00;99.90;;;;;;5039488;28;20080;-89
2024/02/24 08:17:22;;;;;;;5.43;2.33;;;7.00;99.90;;;;;;5038598;28;20025;-88
2024/02/24 08:19:49;;;;;;;5.60;2.13;;;7.10;99.90;;;;;;5039514;28;20037;-88
2024/02/24 08:22:15;;;;;;;4.10;1.93;;;7.10;99.90;;;;;;5037624;28;20400;-88
2024/02/24 08:24:40;;;;;;;4.63;2.00;;;7.20;99.90;;;;;;5039545;28;20104;-88
2024/02/24 08:27:06;;;;;;;4.97;2.00;;;7.20;99.90;;;;;;5038281;28;20033;-89
2024/02/24 08:29:32;;;;;;;4.13;1.87;;;7.20;99.90;;;;;;5039556;28;20029;-86
2024/02/24 08:31:58;;;;;;;6.20;2.10;;;7.30;99.90;;;;;;5038013;28;20056;-87
2024/02/24 08:34:24;;;;;;;6.30;2.40;;;7.30;99.90;;;;;;5041911;28;20021;-89
2024/02/24 08:36:51;;;;;;;6.37;2.40;;;7.30;99.90;;;;;;5042780;28;20088;-89
2024/02/24 08:39:17;;;;;;;3.70;1.87;;;7.30;99.90;;;;;;5041786;28;20033;-89
2024/02/24 08:41:43;;;;;;;5.57;2.23;;;7.20;99.90;;;;;;5043335;28;20025;-88
2024/02/24 08:44:09;;;;;;;6.83;2.80;;;7.30;99.90;;;;;;5042455;28;20052;-87
2024/02/24 08:46:35;;;;;;;5.17;1.90;;;7.30;99.90;;;;;;5043194;28;20482;-86
2024/02/24 08:49:00;;;;;;;5.87;2.10;;;7.40;99.90;;;;;;5041592;28;20048;-86
2024/02/24 08:51:27;;;;;;;4.13;1.70;;;7.40;99.90;;;;;;5041280;28;20056;-88
2024/02/24 08:53:53;;;;;;;4.03;1.80;;;7.40;99.90;;;;;;5042417;28;20025;-88
2024/02/24 08:56:20;;;;;;;5.43;1.80;;;7.50;99.90;;;;;;5041234;28;20107;-87
2024/02/24 08:58:46;;;;;;;4.33;2.00;;;7.40;99.90;;;;;;5042992;28;20022;-87
2024/02/24 09:01:14;;;;;;;4.03;1.93;;;7.50;99.90;;;;;;5040981;28;20017;-86
2024/02/24 09:03:39;;;;;;;3.70;1.60;;;7.50;99.90;;;;;;5042309;28;20100;-86
2024/02/24 09:06:05;;;;;;;4.27;1.43;;;7.60;99.90;;;;;;5040820;28;20552;-86
2024/02/24 09:08:31;;;;;;;3.43;1.40;;;7.60;99.90;;;;;;5042211;28;20024;-89
2024/02/24 09:10:57;;;;;;;3.63;1.50;;;7.60;99.90;;;;;;5042477;28;20032;-87
2024/02/24 09:13:23;;;;;;;4.97;1.80;;;7.70;99.90;;;;;;5041287;28;20118;-87
2024/02/24 09:15:49;;;;;;;4.60;1.60;;;7.70;99.90;;;;;;5042052;28;20397;-88
2024/02/24 09:18:16;;;;;;;4.27;1.80;;;7.80;99.90;;;;;;5040653;28;20018;-89
2024/02/24 09:20:43;;;;;;;3.17;1.50;;;7.70;99.90;;;;;;5042481;28;20056;-86
2024/02/24 09:23:08;;;;;;;3.83;1.70;;;7.70;99.90;;;;;;5038696;28;20022;-86
2024/02/24 09:25:34;;;;;;;4.90;1.60;;;7.70;99.90;;;;;;5039614;28;20025;-87
2024/02/24 09:28:00;;;;;;;3.17;1.43;;;7.60;99.90;;;;;;5041666;28;20072;-87
2024/02/24 09:30:26;;;;;;;4.60;2.03;;;7.60;99.90;;;;;;5040690;28;20042;-87
2024/02/24 09:32:53;;;;;;;2.93;1.40;;;7.60;99.90;;;;;;5041533;28;20545;-86
2024/02/24 09:35:23;;;;;;;2.80;1.10;;;7.50;99.90;;;;;;5040222;28;20085;-87
2024/02/24 09:37:49;;;;;;;2.80;1.00;;;7.40;99.90;;;;;;5042473;28;20096;-86
2024/02/24 09:40:16;;;;;;;4.27;0.90;;;7.30;99.90;;;;;;5040540;28;20097;-86
2024/02/24 09:42:42;;;;;;;1.70;0.93;;;7.20;99.90;;;;;;5041353;28;20029;-87
2024/02/24 09:45:13;;;;;;;3.87;1.73;;;7.10;99.90;;;;;;5041989;28;20036;-86
2024/02/24 09:47:42;;;;;;;3.10;1.67;;;7.00;99.90;;;;;;5040211;28;20052;-86
2024/02/24 09:50:08;;;;;;;3.57;1.60;;;6.90;99.90;;;;;;5041742;28;20034;-86
2024/02/24 09:52:34;;;;;;;3.60;1.50;;;6.90;99.90;;;;;;5040117;28;20025;-86
2024/02/24 09:55:03;;;;;;;3.00;1.70;;;6.90;99.90;;;;;;5042056;28;20021;-87
2024/02/24 09:57:32;;;;;;;3.60;1.80;;;6.90;99.90;;;;;;5040162;28;20017;-87
2024/02/24 09:59:58;;;;;;;4.57;1.73;;;6.90;99.90;;;;;;5041013;28;20032;-86
2024/02/24 10:02:24;;;;;;;5.53;2.00;;;6.90;99.90;;;;;;5040937;28;20045;-86
2024/02/24 10:04:51;;;;;;;4.77;2.40;;;6.80;99.90;;;;;;5040186;28;20059;-86
2024/02/24 10:07:17;;;;;;;5.40;2.43;;;6.80;99.90;;;;;;5043136;28;20156;-86
2024/02/24 10:09:43;;;;;;;5.30;2.63;;;6.80;99.90;;;;;;5039440;28;20067;-86
2024/02/24 10:12:08;;;;;;;5.80;2.90;;;6.70;99.90;;;;;;5041701;28;20026;-86
2024/02/24 10:14:34;;;;;;;6.20;2.63;;;6.70;99.90;;;;;;5039768;28;20411;-85
2024/02/24 10:17:00;;;;;;;5.77;3.00;;;6.60;99.90;;;;;;5040802;28;20032;-86
2024/02/24 10:19:33;;;;;;;4.97;2.40;;;6.60;99.90;;;;;;5040211;28;20022;-87
2024/02/24 10:22:04;;;;;;;6.33;3.07;;;6.60;99.90;;;;;;5039948;28;20064;-86
2024/02/24 10:24:30;;;;;;;6.33;2.50;;;6.60;99.90;;;;;;5041302;28;20026;-86
2024/02/24 10:26:56;;;;;;;5.63;3.10;;;6.60;99.90;;;;;;5039477;28;20029;-86
2024/02/24 10:29:32;;;;;;;6.80;3.00;;;6.70;99.90;;;;;;5041092;28;20040;-86
2024/02/24 10:31:58;;;;;;;7.77;3.40;;;6.70;99.90;;;;;;5038930;28;20049;-85
2024/02/24 10:34:24;;;;;;;8.37;4.13;;;6.70;99.90;;;;;;5039828;28;20017;-86
2024/02/24 10:36:51;;;;;;;8.30;4.07;;;6.70;99.90;;;;;;5040562;28;20013;-87
2024/02/24 10:39:18;;;;;;;8.60;4.33;;;6.60;99.90;;;;;;5040623;28;20047;-87
2024/02/24 10:41:47;;;;;;;9.57;4.77;;;6.70;99.90;;;;;;5041169;28;20017;-86
2024/02/24 10:44:14;;;;;;;10.23;5.07;;;6.70;99.90;;;;;;5038757;28;20520;-86
2024/02/24 10:46:40;;;;;;;8.20;3.80;;;6.70;99.90;;;;;;5038365;28;20108;-88
2024/02/24 10:49:06;;;;;;;10.23;4.67;;;6.80;99.90;;;;;;5039520;28;20022;-86
2024/02/24 10:51:36;;;;;;;7.23;3.37;;;7.00;99.90;;;;;;5039835;28;20121;-89
2024/02/24 10:54:08;;;;;;;5.77;3.50;;;7.10;99.90;;;;;;5040283;28;20056;-86
2024/02/24 10:56:34;;;;;;;6.83;3.40;;;7.30;99.90;;;;;;5039081;28;20029;-87
2024/02/24 10:59:10;;;;;;;9.10;3.03;;;7.40;99.90;;;;;;5040629;28;20033;-87
2024/02/24 11:01:43;;;;;;;5.20;3.27;;;7.40;99.90;;;;;;5040254;28;20021;-87
2024/02/24 11:04:11;;;;;;;4.77;2.63;;;7.50;99.90;;;;;;5061186;28;20048;-87
2024/02/24 11:06:50;;;;;;;8.30;2.93;;;7.50;99.90;;;;;;5043219;28;20017;-88
2024/02/24 11:09:23;;;;;;;9.77;3.33;;;7.50;99.90;;;;;;5042042;28;20509;-87
2024/02/24 11:11:49;;;;;;;5.73;2.33;;;7.50;99.90;;;;;;5061111;28;20021;-86
2024/02/24 11:14:17;;;;;;;6.97;2.87;;;7.50;99.90;;;;;;5041569;28;20040;-87
2024/02/24 11:16:43;;;;;;;7.47;2.93;;;7.60;99.90;;;;;;5042833;28;20021;-88
2024/02/24 11:19:12;;;;;;;7.77;3.00;;;7.70;99.90;;;;;;5041970;28;20472;-87
2024/02/24 11:22:01;;;;;;;4.83;1.97;;;7.90;99.90;;;;;;5042608;28;20057;-88
2024/02/24 11:24:34;;;;;;;6.30;2.50;;;8.10;99.90;;;;;;5042794;28;20295;-88
2024/02/24 11:27:01;;;;;;;3.60;2.00;;;8.30;99.90;;;;;;5040908;28;20079;-87
2024/02/24 11:29:29;;;;;;;5.47;2.10;;;8.40;99.90;;;;;;5043325;28;20100;-87
2024/02/24 11:32:13;;;;;;;5.67;1.63;;;8.60;99.90;;;;;;5040946;28;20021;-87
2024/02/24 11:34:44;;;;;;;3.50;1.50;;;8.80;99.90;;;;;;5040158;28;20029;-86
2024/02/24 11:37:10;;;;;;;4.13;1.40;;;9.00;99.90;;;;;;5049119;28;20804;-86
2024/02/24 11:39:40;;;;;;;4.22;1.42;;;9.50;99.90;;;;;;5061429;28;20097;-88
2024/02/24 11:42:09;;;;;;;2.53;0.90;;;9.70;99.90;;;;;;5057665;28;20031;-88
2024/02/24 11:44:35;;;;;;;5.30;1.00;;;9.80;99.90;;;;;;5041583;28;20450;-88
2024/02/24 11:47:00;;;;;;;3.15;1.30;;;9.80;98.60;;;;;;5042793;28;20109;-87
2024/02/24 11:49:26;;;;;;;2.55;0.90;;;9.70;95.70;;;;;;5042297;28;20328;-86
2024/02/24 11:51:52;;;;;;;3.17;1.20;;;9.40;95.70;;;;;;5041589;28;20045;-89
2024/02/24 11:54:18;;;;;;;6.83;1.53;;;9.40;95.70;;;;;;5042947;28;20025;-87
2024/02/24 11:56:44;;;;;;;5.93;1.20;;;9.30;94.10;;;;;;5041501;28;20033;-87
2024/02/24 11:59:10;;;;;;;5.40;1.50;;;9.20;94.10;;;;;;5043338;28;20102;-88
2024/02/24 12:01:37;;;;;;;3.90;1.20;;;8.90;93.60;;;;;;5041465;28;20499;-87
2024/02/24 12:04:03;;;;;;;4.33;1.40;;;8.90;93.70;;;;;;5063039;28;20052;-88
2024/02/24 12:06:30;;;;;;;3.57;0.90;;;8.70;94.10;;;;;;5041787;28;20028;-88
2024/02/24 12:08:57;;;;;;;2.60;1.20;;;8.70;93.70;;;;;;5064096;28;20024;-86
2024/02/24 12:11:24;;;;;;;3.57;1.30;;;8.70;93.70;;;;;;5065687;28;20037;-87
2024/02/24 12:13:50;;;;;;;5.47;1.10;;;8.90;95.30;;;;;;5063207;28;20059;-86
2024/02/24 12:16:19;;;;;;;7.53;1.10;;;9.30;96.10;;;;;;5055808;28;20029;-87
2024/02/24 12:18:45;;;;;;;4.13;0.95;;;9.80;94.70;;;;;;5044087;28;20382;-88
2024/02/24 12:21:12;;;;;;;3.20;0.73;;;9.90;93.30;;;;;;5045456;28;20087;-87
2024/02/24 12:23:39;;;;;;;2.63;0.80;;;9.80;91.90;;;;;;5045169;28;20342;-86
2024/02/24 12:26:16;;;;;;;3.75;0.70;;;9.70;88.80;;;;;;5044724;28;20028;-87
2024/02/24 12:28:45;;;;;;;2.97;0.80;;;9.50;88.90;;;;;;5060658;28;20027;-86
2024/02/24 12:31:12;;;;;;;4.80;0.77;;;9.30;89.50;;;;;;5063796;28;20044;-85
2024/02/24 12:33:41;;;;;;;3.47;0.80;;;9.10;89.20;;;;;;5065703;28;20045;-88
2024/02/24 12:36:09;;;;;;;5.43;0.90;;;9.00;90.30;;;;;;5064779;28;20476;-87
2024/02/24 12:38:36;;;;;;;2.70;0.80;;;8.90;90.70;;;;;;5050702;28;20107;-86
2024/02/24 12:41:10;;;;;;;3.23;1.07;;;8.90;90.80;;;;;;5045575;28;20020;-85
2024/02/24 12:43:36;;;;;;;1.95;0.70;;;8.80;90.90;;;;;;5044045;28;20052;-86
2024/02/24 12:46:03;;;;;;;2.73;1.33;;;8.80;91.00;;;;;;5045198;28;20025;-84
2024/02/24 12:48:29;;;;;;;3.27;1.20;;;8.60;90.90;;;;;;5043211;28;20077;-87
2024/02/24 12:50:56;;;;;;;4.53;1.10;;;8.50;91.20;;;;;;5045175;28;20052;-86
2024/02/24 12:53:21;;;;;;;4.33;0.90;;;8.40;92.00;;;;;;5044641;28;20025;-85